Time;durP1;ratioP1;P1;durP2;ratioP2;P2;SDS_P1;SDS_P2;PMS_P1;PMS_P2;Temp;Humidity;BMP_temperature;BMP_pressure;BME280_temperature;BME280_humidity;BME280_pressure;Samples;Min_cycle;Max_cycle;Signal;HPM_P1;HPM_P2
2021/04/28 03:02:43;;;;;;;6.53;4.15;;;;;;;3.84;100.00;100489.14;1690604;83;22121;-77
2021/04/28 03:05:20;;;;;;;6.55;4.40;;;;;;;3.84;100.00;100490.44;1714213;80;21171;-78
2021/04/28 03:08:01;;;;;;;6.15;4.45;;;;;;;3.86;100.00;100492.86;1742857;81;21945;-74
2021/04/28 03:10:30;;;;;;;6.42;5.12;;;;;;;3.90;100.00;100492.94;1750345;81;22010;-77
2021/04/28 03:13:00;;;;;;;6.15;4.90;;;;;;;3.93;100.00;100497.02;1732153;81;21009;-78
2021/04/28 03:15:30;;;;;;;6.62;4.65;;;;;;;3.95;100.00;100499.81;1741906;81;21136;-73
2021/04/28 03:18:00;;;;;;;7.33;4.65;;;;;;;3.98;100.00;100495.69;1728029;81;21218;-72
2021/04/28 03:20:30;;;;;;;5.65;4.55;;;;;;;4.02;100.00;100506.07;1716212;80;21488;-79
2021/04/28 03:22:59;;;;;;;8.33;4.90;;;;;;;4.05;100.00;100507.09;1733089;81;21314;-78
2021/04/28 03:25:27;;;;;;;6.25;4.62;;;;;;;4.09;100.00;100510.20;1722586;81;21606;-78
2021/04/28 03:27:58;;;;;;;6.05;4.45;;;;;;;4.14;100.00;100510.15;1746812;81;21243;-77
2021/04/28 03:30:26;;;;;;;6.72;4.70;;;;;;;4.22;100.00;100507.37;1757568;80;21568;-78
2021/04/28 03:32:55;;;;;;;6.55;4.75;;;;;;;4.30;100.00;100516.05;1755691;81;21202;-78
2021/04/28 03:35:29;;;;;;;6.30;4.87;;;;;;;4.40;100.00;100517.36;1753231;81;21021;-74
2021/04/28 03:38:26;;;;;;;6.20;4.53;;;;;;;4.50;100.00;100507.82;1816215;78;23859;-61
2021/04/28 03:40:57;;;;;;;5.65;4.25;;;;;;;4.52;100.00;100516.25;1715279;82;21411;-69
2021/04/28 03:43:25;;;;;;;6.55;4.33;;;;;;;4.61;100.00;100520.58;1771619;79;21137;-61
2021/04/28 03:45:54;;;;;;;6.37;4.83;;;;;;;5.00;100.00;100519.23;1769563;79;21576;-59
2021/04/28 03:48:24;;;;;;;7.55;4.97;;;;;;;5.52;100.00;100526.02;1743577;79;21172;-59
2021/04/28 03:50:52;;;;;;;6.28;4.35;;;;;;;6.27;100.00;100531.05;1721048;81;21607;-59
2021/04/28 03:53:22;;;;;;;6.35;4.42;;;;;;;7.28;100.00;100530.95;1712703;82;22435;-59
2021/04/28 03:55:57;;;;;;;5.70;4.03;;;;;;;8.51;100.00;100521.67;1757118;79;22118;-59
2021/04/28 03:58:26;;;;;;;5.57;4.43;;;;;;;9.77;100.00;100517.09;1765357;79;21463;-61
2021/04/28 04:00:56;;;;;;;5.33;3.60;;;;;;;10.64;100.00;100515.52;1744343;80;21236;-67
2021/04/28 04:03:32;;;;;;;5.40;3.90;;;;;;;12.29;100.00;100491.95;1757193;80;22792;-61
2021/04/28 04:06:19;;;;;;;4.63;3.80;;;;;;;12.29;100.00;100491.95;1740427;82;21478;-66
2021/04/28 04:12:22;;;;;;;4.87;3.57;;;;;;;12.89;100.00;100485.84;1660130;85;21688;-75
2021/04/28 04:14:58;;;;;;;5.00;3.80;;;;;;;12.96;100.00;100491.13;1649432;86;22577;-76
2021/04/28 04:17:26;;;;;;;6.20;3.83;;;;;;;13.31;100.00;100492.73;1674191;84;21019;-77
2021/04/28 04:20:04;;;;;;;6.03;3.77;;;;;;;13.72;100.00;100498.92;1636765;86;21433;-75
2021/04/28 04:22:51;;;;;;;5.63;3.77;;;;;;;14.35;100.00;100498.09;1651066;85;21767;-77
2021/04/28 04:25:37;;;;;;;4.73;3.33;;;;;;;14.68;100.00;100507.30;1643074;85;21046;-76
2021/04/28 04:28:06;;;;;;;4.70;3.37;;;;;;;14.90;100.00;100505.76;1643781;85;21384;-75
2021/04/28 04:30:52;;;;;;;6.00;3.53;;;;;;;15.23;100.00;100510.42;1813391;78;24529;-59
2021/04/28 04:33:33;;;;;;;5.57;3.93;;;;;;;15.13;100.00;100512.66;1701152;82;21115;-61
2021/04/28 04:36:20;;;;;;;5.50;3.60;;;;;;;15.23;100.00;100516.19;1805554;78;21621;-62
2021/04/28 04:38:53;;;;;;;5.47;3.50;;;;;;;15.63;100.00;100518.13;1711735;82;21196;-62
2021/04/28 04:41:24;;;;;;;4.40;3.50;;;;;;;16.16;100.00;100519.16;1764788;80;20952;-64
2021/04/28 04:43:54;;;;;;;4.83;3.52;;;;;;;16.43;100.00;100521.59;1726156;82;21062;-63
2021/04/28 04:46:24;;;;;;;4.77;3.67;;;;;;;16.24;100.00;100526.78;1767757;80;21002;-64
2021/04/28 04:48:53;;;;;;;4.97;3.93;;;;;;;15.78;99.14;100537.59;1757080;80;21185;-63
2021/04/28 04:51:21;;;;;;;4.30;3.40;;;;;;;15.11;100.00;100544.06;1736776;81;21594;-65
2021/04/28 04:53:50;;;;;;;5.73;3.40;;;;;;;14.56;100.00;100545.66;1737763;81;21172;-66
2021/04/28 04:56:18;;;;;;;5.40;3.87;;;;;;;14.06;100.00;100556.97;1739337;80;21690;-65
2021/04/28 04:58:46;;;;;;;4.87;3.83;;;;;;;13.71;100.00;100558.34;1771621;80;21566;-64
2021/04/28 05:01:15;;;;;;;5.67;3.50;;;;;;;13.55;100.00;100555.57;1767904;80;21425;-66
2021/04/28 05:03:44;;;;;;;6.23;4.07;;;;;;;13.75;100.00;100558.30;1748753;80;21666;-65
2021/04/28 05:06:12;;;;;;;6.20;4.27;;;;;;;14.29;100.00;100560.03;1742620;82;21404;-66
2021/04/28 05:08:40;;;;;;;5.90;3.70;;;;;;;14.52;100.00;100564.92;1771413;80;21326;-63
2021/04/28 05:11:08;;;;;;;6.13;3.97;;;;;;;14.35;100.00;100568.39;1767643;80;21006;-66
2021/04/28 05:13:36;;;;;;;4.83;3.67;;;;;;;14.28;100.00;100575.94;1769798;80;21266;-67
2021/04/28 05:16:04;;;;;;;4.63;3.90;;;;;;;14.27;100.00;100580.38;1761828;80;21057;-67
2021/04/28 05:18:32;;;;;;;5.67;4.47;;;;;;;13.95;100.00;100579.82;1760974;80;21010;-68
2021/04/28 05:21:01;;;;;;;5.17;3.80;;;;;;;13.95;100.00;100586.37;1764147;80;21184;-67
2021/04/28 05:23:29;;;;;;;5.27;3.37;;;;;;;13.80;100.00;100579.46;1758651;80;20944;-68
2021/04/28 05:26:21;;;;;;;5.73;3.60;;;;;;;13.63;100.00;100583.41;1846949;76;23331;-66
2021/04/28 05:28:50;;;;;;;6.40;4.00;;;;;;;13.71;100.00;100581.12;1801809;79;21006;-67
2021/04/28 05:31:19;;;;;;;4.87;3.63;;;;;;;13.79;100.00;100581.78;1790201;77;21654;-65
2021/04/28 05:33:47;;;;;;;5.53;3.70;;;;;;;13.69;100.00;100584.45;1803958;77;22045;-67
2021/04/28 05:36:17;;;;;;;4.90;3.60;;;;;;;13.42;100.00;100597.42;1800817;77;21400;-68
2021/04/28 05:38:46;;;;;;;5.77;4.17;;;;;;;13.19;100.00;100597.66;1798791;77;21471;-67
2021/04/28 05:41:15;;;;;;;7.43;3.33;;;;;;;13.18;100.00;100603.06;1795044;77;21500;-68
2021/04/28 05:43:44;;;;;;;4.77;3.53;;;;;;;13.04;100.00;100596.95;1758015;80;22077;-66
2021/04/28 05:46:13;;;;;;;5.50;3.80;;;;;;;12.70;100.00;100602.92;1764492;80;22240;-67
2021/04/28 05:48:41;;;;;;;5.60;3.97;;;;;;;12.20;100.00;100605.47;1775579;79;21538;-68
2021/04/28 05:51:10;;;;;;;4.27;3.73;;;;;;;11.64;100.00;100611.70;1739797;80;21039;-67
2021/04/28 05:53:38;;;;;;;5.77;4.23;;;;;;;11.23;100.00;100613.43;1760420;80;21486;-70
2021/04/28 05:56:07;;;;;;;5.47;4.13;;;;;;;11.16;100.00;100615.12;1760719;78;23088;-69
2021/04/28 05:58:36;;;;;;;5.50;3.97;;;;;;;11.56;100.00;100610.48;1744032;80;21888;-70
2021/04/28 06:01:04;;;;;;;5.27;3.93;;;;;;;12.52;100.00;100600.74;1763374;79;21574;-68
2021/04/28 06:03:33;;;;;;;5.87;3.37;;;;;;;13.77;100.00;100601.31;1743797;81;21102;-69
2021/04/28 06:06:01;;;;;;;4.67;3.30;;;;;;;14.84;100.00;100598.72;1732968;81;21227;-68
2021/04/28 06:08:30;;;;;;;4.53;3.27;;;;;;;15.51;100.00;100606.00;1756031;80;22582;-68
2021/04/28 06:10:58;;;;;;;3.87;3.00;;;;;;;15.90;94.55;100598.20;1751634;79;21074;-68
2021/04/28 06:13:28;;;;;;;4.50;2.73;;;;;;;16.13;79.85;100612.94;1741285;80;21082;-67
2021/04/28 06:15:56;;;;;;;5.57;3.20;;;;;;;16.18;70.62;100610.50;1757452;78;21251;-69
2021/04/28 06:18:26;;;;;;;3.70;2.40;;;;;;;16.09;69.88;100606.49;1763263;79;21689;-67
2021/04/28 06:20:55;;;;;;;3.80;2.97;;;;;;;16.07;69.43;100612.48;1767901;79;21380;-68
2021/04/28 06:23:24;;;;;;;3.53;2.53;;;;;;;16.00;69.64;100610.39;1740778;81;20953;-66
2021/04/28 06:25:53;;;;;;;4.10;3.13;;;;;;;16.04;80.14;100610.27;1739075;79;21175;-69
2021/04/28 06:28:22;;;;;;;4.60;2.77;;;;;;;16.50;69.22;100605.23;1760958;79;22045;-71
2021/04/28 06:30:50;;;;;;;4.30;3.30;;;;;;;16.66;66.93;100599.44;1757409;79;21270;-71
2021/04/28 06:33:18;;;;;;;4.30;2.73;;;;;;;16.74;58.39;100602.34;1749119;80;21605;-71
2021/04/28 06:35:46;;;;;;;5.23;2.77;;;;;;;16.78;61.37;100602.20;1777766;80;21003;-70
2021/04/28 06:38:14;;;;;;;3.83;2.93;;;;;;;16.84;54.90;100609.26;1760860;79;21474;-70
2021/04/28 06:40:42;;;;;;;4.77;3.27;;;;;;;16.83;61.44;100604.22;1741791;79;21027;-72
2021/04/28 06:43:11;;;;;;;4.83;3.27;;;;;;;17.41;67.27;100614.39;1746617;79;21128;-69
2021/04/28 06:45:43;;;;;;;5.80;3.30;;;;;;;18.02;52.46;100605.58;1756686;79;21505;-64
2021/04/28 06:48:11;;;;;;;6.03;2.77;;;;;;;18.35;52.65;100610.41;1731467;82;21022;-69
2021/04/28 06:50:39;;;;;;;5.00;2.90;;;;;;;18.87;51.42;100615.12;1728717;80;21027;-66
2021/04/28 06:53:07;;;;;;;4.03;2.70;;;;;;;19.12;44.88;100616.20;1762814;79;21589;-68
2021/04/28 06:55:36;;;;;;;4.50;2.63;;;;;;;19.05;45.14;100626.87;1743774;79;20979;-70
2021/04/28 06:58:04;;;;;;;5.10;2.80;;;;;;;18.53;41.36;100639.09;1768480;79;21377;-72
2021/04/28 07:00:33;;;;;;;3.67;2.77;;;;;;;17.56;42.01;100637.24;1743062;80;21211;-72
2021/04/28 07:03:01;;;;;;;3.30;2.70;;;;;;;16.62;45.48;100643.00;1732547;82;21135;-74
2021/04/28 07:05:30;;;;;;;5.27;3.10;;;;;;;15.84;51.44;100646.37;1745921;80;21225;-74
2021/04/28 07:08:00;;;;;;;4.83;3.43;;;;;;;15.27;53.62;100653.95;1754718;80;21446;-72
2021/04/28 07:10:30;;;;;;;4.13;3.37;;;;;;;14.60;57.73;100655.73;1770646;80;21231;-74
2021/04/28 07:12:59;;;;;;;5.23;2.87;;;;;;;14.00;67.84;100657.34;1756097;80;21158;-73
2021/04/28 07:15:28;;;;;;;5.63;3.17;;;;;;;13.77;71.40;100655.83;1773770;80;20941;-72
2021/04/28 07:17:58;;;;;;;5.58;2.95;;;;;;;13.51;72.17;100657.80;1755482;79;21201;-71
2021/04/28 07:20:26;;;;;;;6.20;3.17;;;;;;;13.46;77.16;100651.53;1744305;80;21131;-71
2021/04/28 07:22:55;;;;;;;4.93;3.03;;;;;;;13.67;78.76;100659.80;1777013;80;21214;-71
2021/04/28 07:25:23;;;;;;;6.10;3.03;;;;;;;13.87;73.46;100660.22;1767719;80;21004;-70
2021/04/28 07:27:52;;;;;;;5.10;3.03;;;;;;;14.17;71.49;100659.11;1754113;79;21233;-72
2021/04/28 07:30:21;;;;;;;6.03;3.30;;;;;;;14.44;72.46;100656.09;1716139;82;21192;-70
2021/04/28 07:32:50;;;;;;;4.27;2.83;;;;;;;14.47;70.77;100655.66;1791929;79;21655;-73
2021/04/28 07:35:21;;;;;;;7.73;3.10;;;;;;;14.39;64.66;100653.23;1731869;81;22501;-71
2021/04/28 07:37:50;;;;;;;4.65;3.00;;;;;;;14.26;64.14;100654.02;1732807;81;26784;-71
2021/04/28 07:40:21;;;;;;;4.93;2.73;;;;;;;14.08;67.36;100659.80;1751817;81;21997;-68
2021/04/28 07:42:50;;;;;;;6.33;2.70;;;;;;;14.14;66.73;100645.91;1752366;79;21445;-70
2021/04/28 07:45:19;;;;;;;5.00;2.70;;;;;;;14.59;68.28;100647.06;1795869;78;22554;-65
2021/04/28 07:47:47;;;;;;;5.60;2.40;;;;;;;14.97;64.36;100647.80;1790357;78;21394;-68
2021/04/28 07:50:16;;;;;;;5.30;2.93;;;;;;;14.97;60.94;100649.63;1789876;79;21538;-73
2021/04/28 07:52:48;;;;;;;4.37;2.80;;;;;;;14.67;59.30;100657.87;1791229;79;20942;-70
2021/04/28 07:55:16;;;;;;;4.70;3.10;;;;;;;14.26;64.44;100653.51;1800932;79;21031;-65
2021/04/28 07:57:44;;;;;;;4.83;2.90;;;;;;;14.01;63.40;100658.95;1806172;79;22120;-70
2021/04/28 08:00:14;;;;;;;4.87;2.87;;;;;;;13.77;62.89;100657.14;1744736;80;21364;-70
2021/04/28 08:02:42;;;;;;;5.30;2.47;;;;;;;13.72;66.56;100655.61;1753359;79;21146;-71
2021/04/28 08:05:11;;;;;;;5.57;2.50;;;;;;;13.70;65.69;100649.74;1757761;79;21209;-66
2021/04/28 08:07:39;;;;;;;5.33;2.53;;;;;;;13.83;61.22;100652.45;1722998;80;21094;-73
2021/04/28 08:10:09;;;;;;;4.70;2.80;;;;;;;14.20;58.95;100650.35;1734019;79;21127;-68
2021/04/28 08:12:38;;;;;;;4.10;2.70;;;;;;;14.65;59.82;100651.20;1728074;81;21701;-67
2021/04/28 08:15:07;;;;;;;4.23;2.80;;;;;;;14.99;60.00;100643.65;1808502;77;21604;-64
2021/04/28 08:17:36;;;;;;;4.03;2.70;;;;;;;15.33;55.31;100648.66;1802837;77;21200;-66
2021/04/28 08:20:05;;;;;;;6.43;2.27;;;;;;;15.52;49.54;100647.02;1741331;80;21088;-67
2021/04/28 08:22:34;;;;;;;4.33;2.57;;;;;;;15.25;49.40;100642.31;1764504;80;21571;-70
2021/04/28 08:25:08;;;;;;;6.27;2.80;;;;;;;14.77;52.07;100647.80;1757299;79;21266;-65
2021/04/28 08:27:37;;;;;;;4.67;2.60;;;;;;;14.22;58.84;100660.16;1756427;79;21125;-66
2021/04/28 08:30:08;;;;;;;3.60;2.50;;;;;;;13.72;61.15;100658.23;1775075;78;22438;-71
2021/04/28 08:32:37;;;;;;;5.12;2.15;;;;;;;13.39;64.93;100653.59;1776291;77;21081;-73
2021/04/28 08:35:07;;;;;;;3.17;2.50;;;;;;;13.29;70.88;100659.66;1728088;82;21209;-66
2021/04/28 08:37:35;;;;;;;4.43;2.57;;;;;;;13.19;68.76;100662.30;1740825;79;21604;-65
2021/04/28 08:40:06;;;;;;;3.83;2.50;;;;;;;13.22;70.63;100659.27;1744715;81;22371;-69
2021/04/28 08:42:33;;;;;;;3.80;2.70;;;;;;;13.54;70.86;100660.03;1745156;80;21178;-65
2021/04/28 08:45:02;;;;;;;4.43;2.80;;;;;;;14.17;66.16;100648.62;1693223;83;21156;-67
2021/04/28 08:47:30;;;;;;;3.57;2.37;;;;;;;14.63;56.81;100654.54;1743482;81;21184;-65
2021/04/28 08:49:59;;;;;;;3.80;2.07;;;;;;;14.92;59.39;100646.27;1734937;81;21263;-68
2021/04/28 08:52:27;;;;;;;5.43;2.57;;;;;;;15.55;59.84;100651.06;1752817;79;21216;-68
2021/04/28 08:54:55;;;;;;;3.70;2.17;;;;;;;16.50;51.52;100643.39;1745809;81;21184;-68
2021/04/28 08:57:24;;;;;;;3.60;2.23;;;;;;;17.39;45.16;100640.17;1755544;81;21175;-65
2021/04/28 08:59:53;;;;;;;3.63;2.30;;;;;;;18.07;41.74;100636.07;1744993;80;21209;-71
2021/04/28 09:02:24;;;;;;;3.70;1.93;;;;;;;18.47;41.46;100636.83;1752925;79;21204;-70
2021/04/28 09:05:11;;;;;;;3.07;1.83;;;;;;;18.99;37.99;100640.22;1738766;80;21252;-73
2021/04/28 09:07:43;;;;;;;3.70;1.90;;;;;;;18.95;36.08;100637.23;1748131;79;21639;-71
2021/04/28 09:10:26;;;;;;;3.65;2.30;;;;;;;18.90;35.15;100637.09;1743199;81;21021;-70
2021/04/28 09:13:05;;;;;;;4.67;2.93;;;;;;;18.66;35.20;100642.31;1733425;80;21070;-69
2021/04/28 09:15:48;;;;;;;3.43;2.03;;;;;;;18.56;36.89;100639.45;1753843;79;21219;-71
2021/04/28 09:18:35;;;;;;;2.87;1.80;;;;;;;18.48;36.28;100639.75;1725932;82;21685;-71
2021/04/28 09:21:06;;;;;;;4.17;2.20;;;;;;;18.36;36.30;100637.08;1752381;80;21071;-72
2021/04/28 09:23:53;;;;;;;3.10;2.10;;;;;;;18.43;35.91;100641.75;1749342;79;21018;-67
2021/04/28 09:26:36;;;;;;;3.97;2.17;;;;;;;18.42;35.22;100636.19;1776985;79;21218;-74
2021/04/28 09:29:20;;;;;;;2.90;1.93;;;;;;;17.94;35.46;100646.78;1802181;79;22327;-76
2021/04/28 09:32:06;;;;;;;3.50;2.17;;;;;;;17.20;35.46;100648.05;1799905;79;21090;-70
2021/04/28 09:34:39;;;;;;;5.13;2.40;;;;;;;16.56;37.31;100649.13;1792195;79;21050;-70
2021/04/28 09:37:14;;;;;;;3.77;2.10;;;;;;;16.11;38.52;100653.13;1780141;79;21066;-65
2021/04/28 09:39:51;;;;;;;3.60;1.87;;;;;;;15.77;38.90;100655.59;1800879;79;21230;-69
2021/04/28 09:42:20;;;;;;;3.37;1.87;;;;;;;15.36;39.20;100651.39;1788097;79;21131;-71
2021/04/28 09:44:49;;;;;;;3.43;1.80;;;;;;;15.21;38.35;100647.67;1795135;79;20995;-68
2021/04/28 09:47:25;;;;;;;4.47;2.00;;;;;;;15.25;39.15;100648.08;1789322;79;21192;-65
2021/04/28 09:49:59;;;;;;;3.30;1.90;;;;;;;15.48;38.86;100648.44;1790755;79;22454;-70
2021/04/28 09:52:37;;;;;;;3.20;2.03;;;;;;;16.05;40.02;100647.37;1770339;79;21074;-66
2021/04/28 09:55:14;;;;;;;3.07;1.77;;;;;;;16.52;40.96;100650.06;1790546;78;21194;-71
2021/04/28 09:57:44;;;;;;;3.10;1.80;;;;;;;16.65;39.10;100649.16;1799158;79;21047;-72
2021/04/28 10:00:25;;;;;;;4.22;2.50;;;;;;;16.49;38.18;100647.85;1723022;82;21150;-65
2021/04/28 10:03:02;;;;;;;2.83;1.77;;;;;;;16.28;38.09;100650.28;1761362;80;21099;-67
2021/04/28 10:05:36;;;;;;;3.43;2.40;;;;;;;15.86;36.67;100652.21;1737823;79;21550;-69
2021/04/28 10:08:20;;;;;;;2.83;1.60;;;;;;;15.34;37.70;100654.72;1724917;82;21220;-67
2021/04/28 10:10:50;;;;;;;4.40;2.33;;;;;;;15.02;38.74;100651.93;1756360;80;21181;-67
2021/04/28 10:13:19;;;;;;;3.33;2.10;;;;;;;14.74;38.25;100649.50;1746297;81;21167;-68
2021/04/28 10:15:48;;;;;;;4.70;2.20;;;;;;;14.44;39.33;100655.58;1766258;80;21125;-62
2021/04/28 10:18:18;;;;;;;3.20;1.80;;;;;;;14.33;40.84;100654.34;1756908;80;21194;-64
2021/04/28 10:20:48;;;;;;;5.13;2.17;;;;;;;14.45;41.43;100653.25;1781481;78;22570;-70
2021/04/28 10:23:17;;;;;;;3.40;2.10;;;;;;;14.69;42.18;100658.46;1786284;77;21097;-72
2021/04/28 10:25:50;;;;;;;3.33;2.33;;;;;;;14.92;41.96;100656.77;1778841;77;21015;-70
2021/04/28 10:28:19;;;;;;;3.57;2.00;;;;;;;15.04;41.87;100658.31;1773744;78;21186;-65
2021/04/28 10:30:48;;;;;;;3.53;1.80;;;;;;;15.31;44.72;100652.53;1782499;79;21256;-72
2021/04/28 10:33:24;;;;;;;3.60;2.00;;;;;;;15.73;42.67;100659.13;1779763;79;21192;-75
2021/04/28 10:35:53;;;;;;;6.53;2.10;;;;;;;15.96;40.42;100653.90;1775403;77;21507;-67
2021/04/28 10:38:26;;;;;;;4.13;1.93;;;;;;;15.94;40.33;100651.97;1765258;79;21157;-71
2021/04/28 10:40:55;;;;;;;3.10;1.73;;;;;;;15.75;38.84;100648.40;1773439;79;21152;-79
2021/04/28 10:43:36;;;;;;;2.98;1.92;;;;;;;15.57;39.92;100646.42;1779037;78;20927;-76
2021/04/28 10:46:22;;;;;;;2.80;1.97;;;;;;;15.78;41.02;100647.48;1797163;78;22194;-79
2021/04/28 10:48:52;;;;;;;4.57;2.33;;;;;;;16.19;39.33;100648.94;1788993;78;21216;-66
2021/04/28 10:51:36;;;;;;;2.97;1.70;;;;;;;16.70;37.64;100646.69;1718658;81;21093;-65
2021/04/28 10:54:26;;;;;;;3.13;1.80;;;;;;;17.01;37.18;100631.92;1782278;78;21215;-73
2021/04/28 10:57:07;;;;;;;3.40;1.87;;;;;;;17.35;36.96;100632.39;1734547;81;22407;-78
2021/04/28 10:59:41;;;;;;;3.17;1.90;;;;;;;17.61;34.29;100632.11;1741942;81;21446;-76
2021/04/28 11:02:10;;;;;;;2.52;1.45;;;;;;;17.67;33.13;100635.19;1745349;80;21049;-67
2021/04/28 11:04:44;;;;;;;2.77;1.50;;;;;;;17.69;32.80;100630.52;1761228;79;21247;-78
2021/04/28 11:07:15;;;;;;;2.80;1.70;;;;;;;17.68;32.95;100624.93;1765845;79;20979;-73
2021/04/28 11:09:44;;;;;;;2.90;1.57;;;;;;;17.76;34.70;100629.12;1774864;78;21510;-84
2021/04/28 11:12:12;;;;;;;3.80;1.90;;;;;;;17.99;33.33;100624.00;1775336;79;22314;-83
2021/04/28 11:14:47;;;;;;;3.30;1.80;;;;;;;18.02;33.22;100623.24;1772698;78;21302;-80
2021/04/28 11:17:23;;;;;;;3.23;2.03;;;;;;;17.75;32.92;100627.01;1771235;78;21576;-69
2021/04/28 11:19:53;;;;;;;3.93;2.00;;;;;;;17.29;34.17;100625.38;1728720;82;21176;-81
2021/04/28 11:22:28;;;;;;;3.13;1.87;;;;;;;16.88;33.66;100627.55;1731786;80;21204;-82
2021/04/28 11:25:16;;;;;;;3.67;1.93;;;;;;;16.49;34.46;100636.52;1737968;81;21329;-67
2021/04/28 11:28:01;;;;;;;4.30;2.50;;;;;;;16.17;36.50;100643.06;1728980;79;21156;-81
2021/04/28 11:30:41;;;;;;;2.93;1.87;;;;;;;16.10;38.28;100639.69;1722507;82;21453;-77
2021/04/28 11:33:30;;;;;;;3.33;1.87;;;;;;;16.46;37.60;100636.94;1733243;82;21287;-78
2021/04/28 11:36:07;;;;;;;3.57;1.93;;;;;;;16.91;35.52;100628.44;1728988;82;21117;-77
2021/04/28 11:38:40;;;;;;;3.17;1.60;;;;;;;17.24;33.52;100623.40;1727898;82;22272;-72
2021/04/28 11:41:17;;;;;;;2.30;1.60;;;;;;;17.45;33.69;100628.74;1718306;82;22273;-76
2021/04/28 11:43:53;;;;;;;3.07;1.40;;;;;;;17.50;32.16;100634.98;1717314;82;21145;-67
2021/04/28 11:46:29;;;;;;;2.27;1.53;;;;;;;17.70;31.63;100634.76;1721811;82;21232;-73
2021/04/28 11:48:59;;;;;;;2.13;1.20;;;;;;;18.06;30.32;100631.80;1715943;82;21101;-75
2021/04/28 11:51:32;;;;;;;2.72;1.40;;;;;;;18.27;31.59;100631.84;1773028;79;21243;-66
2021/04/28 11:54:05;;;;;;;3.33;1.57;;;;;;;18.76;30.41;100629.12;1775208;79;21200;-73
2021/04/28 11:56:46;;;;;;;2.53;1.40;;;;;;;18.79;29.47;100631.28;1775710;78;21330;-80
2021/04/28 11:59:30;;;;;;;2.50;1.60;;;;;;;18.57;29.63;100622.56;1769370;79;21117;-67
2021/04/28 12:02:00;;;;;;;;;;;;;;;18.66;30.94;100630.95;1787130;79;21079;-75
2021/04/28 12:04:48;;;;;;;2.17;1.40;;;;;;;19.12;30.96;100628.09;1778502;78;21497;-77
2021/04/28 12:07:17;;;;;;;2.80;1.33;;;;;;;19.60;29.75;100623.84;1778558;79;21195;-80
2021/04/28 12:09:47;;;;;;;2.60;1.40;;;;;;;19.58;29.20;100627.75;1777434;79;21011;-77
2021/04/28 12:12:28;;;;;;;2.27;1.20;;;;;;;19.55;29.89;100633.53;1774001;79;21177;-72
2021/04/28 12:15:11;;;;;;;3.07;1.37;;;;;;;19.51;28.89;100633.19;1778701;79;21220;-80
2021/04/28 12:17:53;;;;;;;2.77;1.60;;;;;;;19.17;29.90;100632.98;1772408;79;22119;-83
2021/04/28 12:20:22;;;;;;;2.37;1.63;;;;;;;18.74;30.30;100632.49;1782819;79;21201;-72
2021/04/28 12:22:53;;;;;;;2.93;1.57;;;;;;;18.39;30.84;100635.83;1776768;79;21243;-76
2021/04/28 12:25:23;;;;;;;2.73;1.20;;;;;;;18.12;30.81;100632.23;1769346;79;20982;-75
2021/04/28 12:27:52;;;;;;;1.83;1.27;;;;;;;17.86;30.70;100635.22;1788747;77;21199;-78
2021/04/28 12:30:24;;;;;;;2.40;1.20;;;;;;;17.68;31.58;100633.36;1744609;80;21390;-77
2021/04/28 12:32:54;;;;;;;3.37;1.43;;;;;;;17.66;30.95;100627.52;1757988;79;21169;-78
2021/04/28 12:35:29;;;;;;;1.90;1.13;;;;;;;17.67;30.24;100629.12;1791806;79;21104;-78
2021/04/28 12:38:09;;;;;;;2.43;1.30;;;;;;;17.77;29.93;100617.58;1793045;79;21204;-79
2021/04/28 12:40:45;;;;;;;2.37;1.40;;;;;;;18.04;29.41;100617.25;1797325;77;21223;-76
2021/04/28 12:43:17;;;;;;;3.13;1.57;;;;;;;18.28;29.16;100622.08;1799389;77;22962;-77
2021/04/28 12:45:47;;;;;;;2.70;1.40;;;;;;;18.47;28.87;100613.87;1789633;77;21595;-75
2021/04/28 12:48:20;;;;;;;2.53;1.20;;;;;;;18.64;29.10;100610.59;1794049;77;21211;-83
2021/04/28 12:50:50;;;;;;;2.67;1.20;;;;;;;18.77;28.76;100610.91;1792232;77;21065;-72
2021/04/28 12:53:20;;;;;;;2.63;1.30;;;;;;;18.88;29.01;100612.77;1738063;81;21436;-70
2021/04/28 12:55:53;;;;;;;5.47;1.82;;;;;;;18.97;28.80;100610.05;1758938;79;22887;-76
2021/04/28 12:58:22;;;;;;;2.23;1.23;;;;;;;18.63;28.90;100616.36;1756435;79;21233;-79
2021/04/28 13:00:53;;;;;;;2.33;1.37;;;;;;;18.12;29.67;100605.86;1780007;79;21225;-77
2021/04/28 13:03:32;;;;;;;2.80;1.22;;;;;;;17.96;30.54;100616.52;1756732;79;21183;-86
2021/04/28 13:06:06;;;;;;;2.87;1.40;;;;;;;17.89;30.77;100619.75;1765925;80;21569;-76
2021/04/28 13:08:40;;;;;;;3.23;1.50;;;;;;;17.47;30.65;100622.23;1761605;79;21422;-81
2021/04/28 13:11:25;;;;;;;2.53;1.50;;;;;;;17.07;31.01;100619.70;1770522;79;20961;-84
2021/04/28 13:13:59;;;;;;;4.53;1.80;;;;;;;16.63;31.67;100618.31;1761035;79;21130;-71
2021/04/28 13:16:46;;;;;;;6.07;1.93;;;;;;;16.27;32.93;100619.75;1747090;81;21210;-69
2021/04/28 13:19:25;;;;;;;3.70;1.90;;;;;;;16.09;32.97;100620.95;1745162;80;21175;-74
2021/04/28 13:21:59;;;;;;;2.30;1.30;;;;;;;15.83;33.23;100627.13;1745855;80;21361;-80
2021/04/28 13:27:27;;;;;;;5.40;3.33;;;;;;;15.51;34.07;100635.41;1812723;76;23361;-67
2021/04/28 13:30:02;;;;;;;3.50;1.90;;;;;;;15.52;33.94;100643.07;1793872;79;21686;-72
2021/04/28 13:32:48;;;;;;;5.83;4.53;;;;;;;15.53;32.92;100635.52;1788560;77;22190;-69
2021/04/28 13:35:32;;;;;;;14.60;13.43;;;;;;;15.49;32.92;100634.79;1788317;78;22074;-70
2021/04/28 13:38:04;;;;;;;4.00;3.27;;;;;;;15.52;32.23;100633.08;1789632;78;21024;-70
2021/04/28 13:40:40;;;;;;;3.00;1.67;;;;;;;15.52;32.88;100640.95;1788182;77;21006;-74
2021/04/28 13:43:12;;;;;;;6.53;4.53;;;;;;;15.52;32.89;100641.76;1780391;79;21175;-74
2021/04/28 13:45:42;;;;;;;8.87;5.87;;;;;;;15.46;33.93;100643.11;1790758;77;21185;-70
2021/04/28 13:48:10;;;;;;;4.07;2.60;;;;;;;15.48;34.11;100647.13;1777472;79;21212;-68
2021/04/28 13:50:40;;;;;;;3.80;1.70;;;;;;;15.55;33.34;100641.35;1793043;79;21038;-70
2021/04/28 13:53:08;;;;;;;25.10;22.60;;;;;;;15.64;33.30;100651.13;1790962;79;21572;-72
2021/04/28 13:55:38;;;;;;;7.37;6.50;;;;;;;15.79;33.11;100643.83;1774876;79;21918;-69
2021/04/28 13:58:06;;;;;;;7.87;5.10;;;;;;;15.95;33.93;100641.78;1779093;78;21256;-71
2021/04/28 14:00:35;;;;;;;12.23;8.53;;;;;;;16.09;33.41;100631.98;1749663;81;21124;-71
2021/04/28 14:03:04;;;;;;;5.60;3.47;;;;;;;16.21;33.20;100632.45;1713187;82;21238;-71
2021/04/28 14:05:32;;;;;;;4.33;2.53;;;;;;;16.34;33.51;100632.88;1718281;82;21163;-70
2021/04/28 14:08:01;;;;;;;3.37;1.53;;;;;;;16.38;33.06;100627.48;1728021;81;21145;-70
2021/04/28 14:10:29;;;;;;;2.50;1.60;;;;;;;16.38;33.69;100631.94;1742705;81;21694;-71
2021/04/28 14:12:58;;;;;;;2.17;1.53;;;;;;;16.23;31.95;100629.08;1754013;79;21218;-71
2021/04/28 14:15:27;;;;;;;3.40;2.03;;;;;;;15.87;32.78;100633.59;1751629;79;21075;-74
2021/04/28 14:17:55;;;;;;;3.10;1.63;;;;;;;15.74;33.33;100633.14;1716934;82;21375;-70
2021/04/28 14:20:24;;;;;;;3.20;1.40;;;;;;;15.73;33.34;100635.48;1718322;82;21634;-71
2021/04/28 14:22:52;;;;;;;2.27;1.60;;;;;;;15.69;32.81;100634.28;1729019;82;21502;-71
2021/04/28 14:25:21;;;;;;;3.57;2.00;;;;;;;15.53;32.30;100624.17;1743121;80;21120;-73
2021/04/28 14:27:49;;;;;;;2.47;1.47;;;;;;;15.35;32.31;100627.97;1725329;82;21137;-69
2021/04/28 14:30:21;;;;;;;2.23;1.20;;;;;;;15.19;33.07;100635.27;1777073;79;21200;-70
2021/04/28 14:32:49;;;;;;;;;;;;;;;14.96;33.29;100627.78;1782678;79;21243;-69
2021/04/28 14:35:18;;;;;;;8.40;6.13;;;;;;;14.82;33.38;100628.31;1777296;78;22046;-73
2021/04/28 14:37:48;;;;;;;14.63;11.10;;;;;;;14.65;34.00;100634.95;1772049;78;21006;-68
2021/04/28 14:40:16;;;;;;;3.90;2.47;;;;;;;14.45;33.93;100639.34;1777505;79;21169;-70
2021/04/28 14:42:47;;;;;;;2.33;1.50;;;;;;;14.12;34.14;100637.42;1781271;79;21925;-70
2021/04/28 14:45:17;;;;;;;2.30;1.20;;;;;;;13.94;34.38;100639.77;1787177;79;21173;-70
2021/04/28 14:47:45;;;;;;;2.50;1.42;;;;;;;13.83;34.43;100641.96;1781970;79;22240;-70
2021/04/28 14:50:15;;;;;;;3.23;1.63;;;;;;;13.61;35.79;100646.98;1780521;79;21557;-73
2021/04/28 14:52:43;;;;;;;2.70;1.70;;;;;;;13.44;35.72;100648.28;1779856;79;21196;-71
2021/04/28 14:55:13;;;;;;;4.40;2.67;;;;;;;13.44;35.72;100648.28;1759775;79;21580;-73